Time,TemperatureF,DewpointF,PressureIn,WindDirection,WindDirectionDegrees,WindSpeedMPH,WindSpeedGustMPH,Humidity,HourlyPrecipIn,Conditions,Clouds,dailyrainin,SoftwareType,DateUTC
2013-03-24 00:02:00,51.0,50.0,29.66,SE,138,8.0,18.0,96,0.26,,,1.05,,2013-03-24 05:02:00,
2013-03-24 00:12:00,51.0,50.0,29.66,SE,138,8.0,18.0,96,0.26,,,1.05,,2013-03-24 05:12:00,
2013-03-24 00:22:00,52.0,51.0,29.61,SE,130,9.0,20.0,97,0.24,,,1.09,,2013-03-24 05:22:00,
2013-03-24 00:32:00,52.0,51.0,29.61,SE,141,6.0,16.0,97,0.19,,,1.08,,2013-03-24 05:32:00,
2013-03-24 00:42:00,52.0,51.0,29.61,SE,141,6.0,16.0,97,0.19,,,1.08,,2013-03-24 05:42:00,
2013-03-24 00:52:00,52.0,51.0,29.62,SSE,154,10.0,18.0,97,0.12,,,1.08,,2013-03-24 05:52:00,
2013-03-24 01:02:00,52.0,51.0,29.62,SSE,148,7.0,14.0,96,0.05,,,1.08,,2013-03-24 06:02:00,
2013-03-24 01:12:00,52.0,51.0,29.62,SSE,148,7.0,14.0,96,0.05,,,1.08,,2013-03-24 06:12:00,
2013-03-24 01:22:00,51.0,50.0,29.62,South,182,12.0,20.0,97,0.01,,,1.08,,2013-03-24 06:22:00,
2013-03-24 01:32:00,52.0,51.0,29.66,SSW,193,7.0,12.0,96,0.00,,,1.06,,2013-03-24 06:32:00,
2013-03-24 01:42:00,52.0,51.0,29.66,SSW,193,7.0,12.0,96,0.00,,,1.06,,2013-03-24 06:42:00,
2013-03-24 01:52:00,52.0,51.0,29.64,ESE,119,5.0,12.0,96,0.04,,,1.10,,2013-03-24 06:52:00,
2013-03-24 02:02:00,52.0,51.0,29.62,SE,126,5.0,11.0,97,0.07,,,1.13,,2013-03-24 07:02:00,
2013-03-24 02:12:00,52.0,51.0,29.62,SE,126,5.0,11.0,97,0.07,,,1.13,,2013-03-24 07:12:00,
2013-03-24 02:22:00,52.0,51.0,29.61,East,99,7.0,13.0,97,0.09,,,1.15,,2013-03-24 07:22:00,
2013-03-24 02:32:00,52.0,51.0,29.58,ESE,116,5.0,11.0,97,0.11,,,1.10,,2013-03-24 07:32:00,
2013-03-24 02:42:00,52.0,51.0,29.58,ESE,116,5.0,11.0,97,0.11,,,1.10,,2013-03-24 07:42:00,
2013-03-24 02:52:00,52.0,51.0,29.57,SE,131,5.0,8.0,97,0.09,,,1.12,,2013-03-24 07:52:00,
2013-03-24 03:03:00,52.0,51.0,29.59,SSW,199,3.0,6.0,97,0.08,,,1.13,,2013-03-24 08:03:00,
2013-03-24 03:12:00,52.0,51.0,29.59,SSW,199,3.0,6.0,97,0.08,,,1.13,,2013-03-24 08:12:00,
2013-03-24 03:22:00,53.0,52.0,29.60,SSE,155,6.0,8.0,97,0.07,,,1.15,,2013-03-24 08:22:00,
2013-03-24 03:32:00,53.0,52.0,29.60,South,171,5.0,15.0,97,0.07,,,1.13,,2013-03-24 08:32:00,
2013-03-24 03:42:00,53.0,52.0,29.60,South,171,5.0,15.0,97,0.07,,,1.13,,2013-03-24 08:42:00,
2013-03-24 03:52:00,53.0,52.0,29.59,SSE,161,8.0,13.0,97,0.06,,,1.14,,2013-03-24 08:52:00,
2013-03-24 04:02:00,53.0,52.0,29.58,SE,143,8.0,14.0,97,0.07,,,1.16,,2013-03-24 09:02:00,
2013-03-24 04:12:00,53.0,52.0,29.58,SE,143,8.0,14.0,97,0.07,,,1.16,,2013-03-24 09:12:00,
2013-03-24 04:22:00,53.0,52.0,29.55,ESE,113,9.0,19.0,97,0.08,,,1.19,,2013-03-24 09:22:00,
2013-03-24 04:33:00,53.0,52.0,29.51,ESE,121,9.0,17.0,97,0.06,,,1.19,,2013-03-24 09:33:00,
2013-03-24 04:42:00,53.0,52.0,29.51,ESE,121,9.0,17.0,97,0.06,,,1.19,,2013-03-24 09:42:00,
2013-03-24 04:52:00,53.0,52.0,29.51,ESE,117,6.0,17.0,98,0.05,,,1.19,,2013-03-24 09:52:00,
2013-03-24 05:02:00,53.0,52.0,29.50,SE,137,13.0,20.0,97,0.03,,,1.19,,2013-03-24 10:02:00,
2013-03-24 05:12:00,53.0,52.0,29.50,SE,137,13.0,20.0,97,0.03,,,1.19,,2013-03-24 10:12:00,
2013-03-24 05:22:00,53.0,52.0,29.49,ESE,117,11.0,20.0,97,0.00,,,1.19,,2013-03-24 10:22:00,
2013-03-24 05:32:00,53.0,52.0,29.49,SSE,158,4.0,12.0,97,0.00,,,1.15,,2013-03-24 10:32:00,
2013-03-24 05:42:00,53.0,52.0,29.49,SSE,158,4.0,12.0,97,0.00,,,1.15,,2013-03-24 10:42:00,
2013-03-24 05:52:00,52.0,51.0,29.49,South,172,7.0,11.0,97,0.00,,,1.15,,2013-03-24 10:52:00,
2013-03-24 06:03:00,52.0,51.0,29.49,SE,127,10.0,18.0,96,0.00,,,1.15,,2013-03-24 11:03:00,
2013-03-24 06:12:00,52.0,51.0,29.49,SE,127,10.0,18.0,96,0.00,,,1.15,,2013-03-24 11:12:00,
2013-03-24 06:22:00,52.0,50.0,29.50,SSE,158,8.0,16.0,94,0.00,,,1.15,,2013-03-24 11:22:00,
2013-03-24 06:32:00,53.0,51.0,29.51,ESE,117,11.0,16.0,92,0.00,,,1.13,,2013-03-24 11:32:00,
2013-03-24 06:42:00,53.0,51.0,29.51,ESE,117,11.0,16.0,92,0.00,,,1.13,,2013-03-24 11:42:00,
2013-03-24 06:52:00,53.0,50.0,29.52,SSE,168,6.0,14.0,91,0.00,,,1.13,,2013-03-24 11:52:00,
2013-03-24 07:02:00,53.0,50.0,29.52,SE,138,7.0,17.0,89,0.00,,,1.13,,2013-03-24 12:02:00,
2013-03-24 07:12:00,53.0,50.0,29.52,SE,138,7.0,17.0,89,0.00,,,1.13,,2013-03-24 12:12:00,
2013-03-24 07:22:00,53.0,50.0,29.53,SW,219,5.0,10.0,89,0.01,,,1.14,,2013-03-24 12:22:00,
2013-03-24 07:32:00,53.0,50.0,29.53,South,182,0.0,8.0,88,0.01,,,1.00,,2013-03-24 12:32:00,
2013-03-24 07:42:00,53.0,50.0,29.53,South,182,0.0,8.0,88,0.01,,,1.00,,2013-03-24 12:42:00,
2013-03-24 07:52:00,53.0,50.0,29.55,West,275,6.0,7.0,88,0.01,,,1.00,,2013-03-24 12:52:00,
2013-03-24 08:02:00,53.0,50.0,29.57,WNW,295,3.0,10.0,89,0.01,,,1.00,,2013-03-24 13:02:00,
2013-03-24 08:12:00,53.0,50.0,29.57,WNW,295,3.0,10.0,89,0.01,,,1.00,,2013-03-24 13:12:00,
2013-03-24 08:22:00,53.0,50.0,29.57,West,272,4.0,7.0,89,0.00,,,1.00,,2013-03-24 13:22:00,
2013-03-24 08:32:00,53.0,50.0,29.58,SW,232,4.0,10.0,88,0.00,,,0.98,,2013-03-24 13:32:00,
2013-03-24 08:42:00,53.0,50.0,29.58,SW,232,4.0,10.0,88,0.00,,,0.98,,2013-03-24 13:42:00,
2013-03-24 08:52:00,53.0,49.0,29.58,WSW,243,5.0,7.0,87,0.00,,,0.98,,2013-03-24 13:52:00,
2013-03-24 09:02:00,53.0,49.0,29.57,SSE,162,5.0,8.0,86,0.00,,,0.98,,2013-03-24 14:02:00,
2013-03-24 09:12:00,53.0,49.0,29.57,SSE,162,5.0,8.0,86,0.00,,,0.98,,2013-03-24 14:12:00,
2013-03-24 09:22:00,55.0,50.0,29.55,South,188,4.0,7.0,83,0.00,,,0.98,,2013-03-24 14:22:00,
2013-03-24 09:32:00,55.0,49.0,29.55,South,186,6.0,11.0,79,0.00,,,0.95,,2013-03-24 14:32:00,
2013-03-24 09:42:00,55.0,49.0,29.55,South,186,6.0,11.0,79,0.00,,,0.95,,2013-03-24 14:42:00,
2013-03-24 09:52:00,57.0,50.0,29.54,SSE,152,6.0,11.0,77,0.00,,,0.95,,2013-03-24 14:52:00,
2013-03-24 10:02:00,56.0,49.0,29.53,SSW,192,6.0,12.0,76,0.00,,,0.95,,2013-03-24 15:02:00,
2013-03-24 10:12:00,56.0,49.0,29.53,SSW,192,6.0,12.0,76,0.00,,,0.95,,2013-03-24 15:12:00,
2013-03-24 10:22:00,56.0,49.0,29.54,South,191,4.0,10.0,76,0.00,,,0.95,,2013-03-24 15:22:00,
2013-03-24 10:33:00,57.0,50.0,29.53,SSW,212,6.0,8.0,77,0.00,,,0.95,,2013-03-24 15:33:00,
2013-03-24 10:43:00,57.0,50.0,29.53,SSW,212,6.0,8.0,77,0.00,,,0.95,,2013-03-24 15:43:00,
2013-03-24 10:53:00,58.0,50.0,29.52,SSE,161,6.0,9.0,76,0.00,,,0.95,,2013-03-24 15:53:00,
2013-03-24 11:02:00,57.0,49.0,29.52,SW,215,5.0,11.0,75,0.00,,,0.95,,2013-03-24 16:02:00,
2013-03-24 11:12:00,57.0,49.0,29.52,SW,215,5.0,11.0,75,0.00,,,0.95,,2013-03-24 16:12:00,
2013-03-24 11:22:00,57.0,49.0,29.52,SSE,167,5.0,11.0,75,0.00,,,0.95,,2013-03-24 16:22:00,
2013-03-24 11:33:00,58.0,50.0,29.52,SSW,193,6.0,10.0,74,0.00,,,0.95,,2013-03-24 16:33:00,
2013-03-24 11:42:00,58.0,50.0,29.52,SSW,193,6.0,10.0,74,0.00,,,0.95,,2013-03-24 16:42:00,
2013-03-24 11:52:00,58.0,50.0,29.51,WSW,247,7.0,11.0,74,0.00,,,0.95,,2013-03-24 16:52:00,
2013-03-24 12:02:00,58.0,50.0,29.51,SSE,165,8.0,14.0,75,0.00,,,0.95,,2013-03-24 17:02:00,
2013-03-24 12:12:00,58.0,50.0,29.51,SSE,165,8.0,14.0,75,0.00,,,0.95,,2013-03-24 17:12:00,
2013-03-24 12:22:00,59.0,51.0,29.50,SSW,198,10.0,16.0,74,0.00,,,0.95,,2013-03-24 17:22:00,
2013-03-24 12:32:00,59.0,51.0,29.50,SW,223,7.0,14.0,74,0.00,,,0.95,,2013-03-24 17:32:00,
2013-03-24 12:42:00,59.0,51.0,29.50,SW,223,7.0,14.0,74,0.00,,,0.95,,2013-03-24 17:42:00,
2013-03-24 12:53:00,59.0,51.0,29.49,WSW,241,9.0,13.0,74,0.00,,,0.95,,2013-03-24 17:53:00,
2013-03-24 13:02:00,60.0,51.0,29.47,SW,236,11.0,14.0,73,0.00,,,0.95,,2013-03-24 18:02:00,
2013-03-24 13:12:00,60.0,51.0,29.47,SW,236,11.0,14.0,73,0.00,,,0.95,,2013-03-24 18:12:00,
2013-03-24 13:22:00,60.0,51.0,29.47,WSW,248,13.0,18.0,72,0.00,,,0.95,,2013-03-24 18:22:00,
2013-03-24 13:32:00,60.0,52.0,29.46,SW,217,6.0,18.0,75,0.00,,,0.95,,2013-03-24 18:32:00,
2013-03-24 13:42:00,60.0,52.0,29.46,SW,217,6.0,18.0,75,0.00,,,0.95,,2013-03-24 18:42:00,
2013-03-24 13:52:00,59.0,51.0,29.45,SW,220,8.0,20.0,75,0.00,,,0.95,,2013-03-24 18:52:00,
2013-03-24 14:02:00,59.0,51.0,29.44,SSW,212,12.0,18.0,75,0.00,,,0.95,,2013-03-24 19:02:00,
2013-03-24 14:12:00,59.0,51.0,29.44,SSW,212,12.0,18.0,75,0.00,,,0.95,,2013-03-24 19:12:00,
2013-03-24 14:22:00,59.0,52.0,29.44,WSW,239,11.0,19.0,77,0.00,,,0.95,,2013-03-24 19:22:00,
2013-03-24 14:32:00,58.0,52.0,29.42,SW,230,17.0,24.0,80,0.00,,,0.95,,2013-03-24 19:32:00,
2013-03-24 14:42:00,58.0,52.0,29.42,SW,230,17.0,24.0,80,0.00,,,0.95,,2013-03-24 19:42:00,
2013-03-24 14:53:00,56.0,52.0,29.43,WSW,254,17.0,22.0,88,0.00,,,0.95,,2013-03-24 19:53:00,
2013-03-24 15:02:00,52.0,48.0,29.44,WNW,285,26.0,39.0,87,0.07,,,1.02,,2013-03-24 20:02:00,
2013-03-24 15:12:00,52.0,48.0,29.44,WNW,285,26.0,39.0,87,0.07,,,1.02,,2013-03-24 20:12:00,
2013-03-24 15:22:00,51.0,47.0,29.47,West,271,20.0,34.0,87,0.08,,,1.03,,2013-03-24 20:22:00,
2013-03-24 15:32:00,51.0,46.0,29.46,WNW,298,19.0,31.0,83,0.08,,,1.03,,2013-03-24 20:32:00,
2013-03-24 15:42:00,51.0,46.0,29.46,WNW,298,19.0,31.0,83,0.08,,,1.03,,2013-03-24 20:42:00,
2013-03-24 15:53:00,51.0,45.0,29.46,NW,308,23.0,33.0,81,0.08,,,1.03,,2013-03-24 20:53:00,
2013-03-24 16:02:00,51.0,45.0,29.48,NW,316,13.0,29.0,81,0.01,,,1.03,,2013-03-24 21:02:00,
2013-03-24 16:12:00,51.0,45.0,29.48,NW,316,13.0,29.0,81,0.01,,,1.03,,2013-03-24 21:12:00,
2013-03-24 16:22:00,52.0,44.0,29.48,WNW,294,15.0,27.0,75,0.00,,,1.03,,2013-03-24 21:22:00,
2013-03-24 16:33:00,53.0,44.0,29.48,WNW,291,16.0,22.0,72,0.00,,,1.02,,2013-03-24 21:33:00,
2013-03-24 16:43:00,53.0,44.0,29.48,WNW,291,16.0,22.0,72,0.00,,,1.02,,2013-03-24 21:43:00,
2013-03-24 16:53:00,53.0,42.0,29.48,WNW,288,19.0,29.0,67,0.00,,,1.02,,2013-03-24 21:53:00,
2013-03-24 17:02:00,54.0,43.0,29.49,West,270,13.0,31.0,67,0.00,,,1.02,,2013-03-24 22:02:00,
2013-03-24 17:13:00,53.0,40.0,29.49,WNW,299,20.0,27.0,62,0.00,,,1.02,,2013-03-24 22:13:00,
2013-03-24 17:22:00,53.0,40.0,29.49,WNW,299,20.0,27.0,62,0.00,,,1.02,,2013-03-24 22:22:00,
2013-03-24 17:33:00,52.0,38.0,29.50,WNW,295,25.0,38.0,58,0.00,,,0.93,,2013-03-24 22:33:00,
2013-03-24 17:42:00,52.0,38.0,29.50,WNW,295,25.0,38.0,58,0.00,,,0.93,,2013-03-24 22:42:00,
2013-03-24 17:52:00,50.0,36.0,29.52,NW,305,19.0,34.0,59,0.00,,,0.93,,2013-03-24 22:52:00,
2013-03-24 18:02:00,47.0,34.0,29.56,WNW,285,23.0,37.0,60,0.00,,,0.93,,2013-03-24 23:02:00,
2013-03-24 18:12:00,47.0,34.0,29.56,WNW,285,23.0,37.0,60,0.00,,,0.93,,2013-03-24 23:12:00,
2013-03-24 18:22:00,45.0,32.0,29.57,WNW,298,21.0,40.0,60,0.00,,,0.93,,2013-03-24 23:22:00,
2013-03-24 18:32:00,44.0,33.0,29.59,West,281,19.0,31.0,64,0.00,,,0.93,,2013-03-24 23:32:00,
2013-03-24 18:42:00,44.0,33.0,29.59,West,281,19.0,31.0,64,0.00,,,0.93,,2013-03-24 23:42:00,
2013-03-24 18:52:00,44.0,32.0,29.60,WNW,302,16.0,29.0,62,0.00,,,0.93,,2013-03-24 23:52:00,
2013-03-24 19:02:00,43.0,30.0,29.62,WNW,294,18.0,28.0,61,0.00,,,0.93,,2013-03-25 00:02:00,
2013-03-24 19:12:00,43.0,30.0,29.62,WNW,294,18.0,28.0,61,0.00,,,0.93,,2013-03-25 00:12:00,
2013-03-24 19:22:00,43.0,31.0,29.62,West,277,13.0,28.0,63,0.00,,,0.93,,2013-03-25 00:22:00,
2013-03-24 19:32:00,43.0,31.0,29.64,West,275,19.0,31.0,63,0.00,,,0.93,,2013-03-25 00:32:00,
2013-03-24 19:42:00,43.0,31.0,29.64,West,275,19.0,31.0,63,0.00,,,0.93,,2013-03-25 00:42:00,
2013-03-24 19:53:00,42.0,30.0,29.65,WNW,288,22.0,29.0,62,0.00,,,0.93,,2013-03-25 00:53:00,
2013-03-24 20:02:00,42.0,31.0,29.65,WNW,289,15.0,28.0,64,0.00,,,0.93,,2013-03-25 01:02:00,
2013-03-24 20:12:00,42.0,31.0,29.65,WNW,289,15.0,28.0,64,0.00,,,0.93,,2013-03-25 01:12:00,
2013-03-24 20:22:00,42.0,31.0,29.65,WNW,289,15.0,28.0,64,0.00,,,0.93,,2013-03-25 01:22:00,
2013-03-24 20:32:00,42.0,31.0,29.65,WNW,289,15.0,28.0,64,0.00,,,0.93,,2013-03-25 01:32:00,
2013-03-24 20:42:00,42.0,31.0,29.65,WNW,289,15.0,28.0,64,0.00,,,0.93,,2013-03-25 01:42:00,